createdAt,value
2023-02-24T00:02:20.419Z,22.70
2023-02-24T00:06:39.058Z,24.58
2023-02-24T00:10:52.448Z,23.95
2023-02-24T00:15:05.361Z,24.65
2023-02-24T00:19:20.042Z,24.55
2023-02-24T00:23:32.422Z,25.60
2023-02-24T00:27:44.872Z,25.67
2023-02-24T00:32:07.024Z,27.45
2023-02-24T00:36:24.056Z,27.92
2023-02-24T00:40:37.540Z,26.77
2023-02-24T00:44:50.151Z,28.23
2023-02-24T00:49:08.013Z,30.48
2023-02-24T00:53:22.909Z,29.13
2023-02-24T00:57:35.728Z,29.58
2023-02-24T01:01:50.850Z,31.05
2023-02-24T01:06:03.796Z,32.08
2023-02-24T01:10:18.730Z,31.98
2023-02-24T01:14:33.781Z,32.47
2023-02-24T01:18:50.054Z,31.88
2023-02-24T01:23:03.716Z,30.42
2023-02-24T01:27:20.603Z,31.08
2023-02-24T01:31:33.020Z,29.33
2023-02-24T01:35:45.905Z,31.38
2023-02-24T01:39:59.741Z,30.35
2023-02-24T01:44:15.007Z,31.88
2023-02-24T01:48:30.263Z,31.98
2023-02-24T01:52:45.889Z,36.53
2023-02-24T01:56:59.123Z,34.47
2023-02-24T02:01:11.555Z,34.70
2023-02-24T02:05:25.267Z,32.95
2023-02-24T02:09:43.284Z,33.08
2023-02-24T02:13:57.169Z,33.63
2023-02-24T02:18:25.918Z,33.88
2023-02-24T02:23:19.681Z,33.72
2023-02-24T02:27:38.302Z,33.70
2023-02-24T02:32:38.652Z,33.20
2023-02-24T02:36:57.680Z,34.30
2023-02-24T02:41:23.991Z,33.75
2023-02-24T02:45:56.280Z,35.03
2023-02-24T02:50:30.843Z,37.75
2023-02-24T02:54:50.759Z,37.78
2023-02-24T02:59:07.548Z,37.95
2023-02-24T03:03:22.530Z,38.92
2023-02-24T03:07:43.087Z,38.78
2023-02-24T03:12:02.479Z,39.10
2023-02-24T03:16:18.892Z,38.60
2023-02-24T03:20:40.025Z,40.08
2023-02-24T03:24:53.815Z,38.13
2023-02-24T03:29:36.797Z,35.33
2023-02-24T03:34:00.931Z,35.67
2023-02-24T03:38:14.504Z,33.30
2023-02-24T03:42:34.075Z,31.48
2023-02-24T03:50:59.774Z,33.50
2023-02-24T03:56:02.178Z,37.35
2023-02-24T04:00:37.402Z,37.75
2023-02-24T04:05:05.971Z,38.65
2023-02-24T04:09:57.456Z,35.65
2023-02-24T04:14:25.045Z,34.50
2023-02-24T04:18:40.874Z,33.97
2023-02-24T04:23:02.771Z,30.83
2023-02-24T04:27:16.995Z,29.05
2023-02-24T04:31:32.842Z,29.50
2023-02-24T04:35:48.387Z,29.92
2023-02-24T04:40:03.570Z,31.17
2023-02-24T04:44:21.452Z,30.73
2023-02-24T04:48:36.984Z,34.28
2023-02-24T04:53:01.209Z,33.75
2023-02-24T04:57:14.708Z,34.60
2023-02-24T05:01:28.148Z,35.00
2023-02-24T05:05:43.219Z,32.67
2023-02-24T05:09:55.611Z,32.80
2023-02-24T05:14:08.463Z,32.78
2023-02-24T05:18:21.163Z,33.15
2023-02-24T05:22:33.568Z,33.40
2023-02-24T05:26:46.972Z,33.15
2023-02-24T05:31:08.719Z,33.92
2023-02-24T05:35:21.446Z,31.55
2023-02-24T05:39:35.469Z,33.13
2023-02-24T05:43:55.229Z,32.30
2023-02-24T05:48:07.587Z,35.42
2023-02-24T05:52:20.749Z,35.25
2023-02-24T05:56:38.077Z,35.13
2023-02-24T06:00:50.512Z,34.38
2023-02-24T06:05:04.761Z,35.17
2023-02-24T06:09:17.178Z,31.85
2023-02-24T06:13:29.617Z,34.97
2023-02-24T06:17:42.174Z,29.95
2023-02-24T06:21:55.969Z,25.88
2023-02-24T06:26:19.758Z,24.92
2023-02-24T06:30:33.130Z,24.88
2023-02-24T06:34:46.005Z,23.00
2023-02-24T06:38:58.415Z,22.85
2023-02-24T06:43:11.230Z,23.50
2023-02-24T06:47:23.724Z,21.77
2023-02-24T06:51:36.060Z,23.95
2023-02-24T06:55:49.224Z,23.73
2023-02-24T07:00:17.279Z,22.88
2023-02-24T07:04:30.093Z,26.23
2023-02-24T07:08:44.331Z,26.40
2023-02-24T07:12:56.755Z,27.52
2023-02-24T07:17:09.369Z,27.33
2023-02-24T07:21:23.794Z,26.25
2023-02-24T07:25:36.277Z,24.90
2023-02-24T07:29:53.532Z,27.08
2023-02-24T07:34:06.712Z,23.92
2023-02-24T07:38:23.220Z,29.75
2023-02-24T07:42:35.694Z,40.30
2023-02-24T07:46:52.621Z,40.88
2023-02-24T07:51:13.451Z,42.70
2023-02-24T07:55:31.435Z,43.33
2023-02-24T07:59:47.891Z,40.65
2023-02-24T08:04:08.387Z,39.97
2023-02-24T08:08:25.810Z,40.97
2023-02-24T08:12:42.995Z,40.60
2023-02-24T08:17:05.620Z,40.42
2023-02-24T08:21:21.253Z,38.10
2023-02-24T08:25:36.911Z,35.25
2023-02-24T08:30:00.619Z,32.90
2023-02-24T08:34:16.359Z,30.05
2023-02-24T08:38:40.259Z,27.42
2023-02-24T08:42:52.758Z,24.05
2023-02-24T08:47:07.772Z,25.40
2023-02-24T08:51:29.203Z,23.83
2023-02-24T08:55:43.003Z,24.05
2023-02-24T08:59:58.249Z,24.30
2023-02-24T09:04:13.075Z,25.25
2023-02-24T09:08:36.060Z,25.20
2023-02-24T09:12:53.841Z,24.60
2023-02-24T09:17:11.802Z,22.63
2023-02-24T09:21:42.485Z,19.63
2023-02-24T09:25:54.883Z,20.52
2023-02-24T09:30:08.376Z,20.08
2023-02-24T09:34:20.674Z,16.85
2023-02-24T09:39:11.359Z,15.57
2023-02-24T09:43:31.060Z,15.70
2023-02-24T09:47:57.601Z,14.80
2023-02-24T09:52:17.734Z,13.15
2023-02-24T09:56:57.520Z,14.25
2023-02-24T10:01:33.755Z,14.70
2023-02-24T10:06:04.926Z,14.93
2023-02-24T10:10:36.157Z,14.98
2023-02-24T10:15:32.500Z,13.50
2023-02-24T10:19:45.078Z,14.50
2023-02-24T10:24:14.634Z,13.18
2023-02-24T10:28:52.186Z,13.90
2023-02-24T10:33:06.454Z,11.13
2023-02-24T10:37:28.717Z,11.98
2023-02-24T10:41:50.213Z,10.93
2023-02-24T10:46:17.647Z,10.30
2023-02-24T10:50:55.043Z,8.60
2023-02-24T10:55:41.650Z,9.93
2023-02-24T11:00:19.399Z,10.38
2023-02-24T11:05:10.139Z,9.20
2023-02-24T11:09:28.003Z,8.77
2023-02-24T11:14:07.484Z,8.82
2023-02-24T11:18:23.522Z,7.72
2023-02-24T11:22:39.890Z,7.43
2023-02-24T11:26:52.702Z,6.65
2023-02-24T11:31:28.831Z,7.35
2023-02-24T11:35:48.663Z,7.22
2023-02-24T11:40:23.557Z,7.10
2023-02-24T11:44:54.604Z,7.53
2023-02-24T11:49:22.310Z,6.38
2023-02-24T11:53:57.879Z,6.68
2023-02-24T11:58:44.622Z,7.25
2023-02-24T12:03:09.744Z,7.57
2023-02-24T12:07:50.692Z,8.77
2023-02-24T12:12:13.602Z,8.57
2023-02-24T12:16:40.856Z,8.57
2023-02-24T12:21:10.782Z,9.05
2023-02-24T12:25:36.049Z,9.40
2023-02-24T12:30:34.457Z,9.85
2023-02-24T12:35:07.767Z,9.90
2023-02-24T12:39:32.440Z,10.98
2023-02-24T12:44:13.976Z,10.70
2023-02-24T12:49:03.929Z,9.70
2023-02-24T12:53:41.733Z,9.27
2023-02-24T12:58:18.180Z,8.52
2023-02-24T13:03:24.519Z,9.40
2023-02-24T13:07:49.940Z,8.50
2023-02-24T13:12:28.309Z,8.40
2023-02-24T13:16:41.897Z,8.60
2023-02-24T13:21:23.047Z,9.07
2023-02-24T13:25:39.882Z,8.48
2023-02-24T13:29:53.571Z,8.38
2023-02-24T13:34:14.966Z,10.15
2023-02-24T13:38:33.169Z,8.98
2023-02-24T13:43:01.809Z,8.27
2023-02-24T13:47:41.035Z,8.40
2023-02-24T13:52:00.034Z,7.88
2023-02-24T13:56:34.399Z,8.07
2023-02-24T14:01:01.570Z,7.88
2023-02-24T14:05:41.762Z,7.57
2023-02-24T14:10:01.683Z,7.20
2023-02-24T14:14:19.055Z,7.20
2023-02-24T14:18:31.707Z,7.05
2023-02-24T14:22:46.769Z,7.03
2023-02-24T14:27:01.262Z,6.97
2023-02-24T14:31:16.543Z,7.80
2023-02-24T14:35:58.237Z,6.65
2023-02-24T14:40:16.372Z,6.93
2023-02-24T14:44:30.365Z,6.72
2023-02-24T14:48:44.388Z,6.60
2023-02-24T14:53:13.566Z,6.80
2023-02-24T14:57:30.820Z,6.90
2023-02-24T15:01:51.979Z,6.03
2023-02-24T15:06:15.946Z,6.68
2023-02-24T15:10:31.280Z,7.65
2023-02-24T15:14:51.365Z,8.48
2023-02-24T15:19:03.872Z,7.55
2023-02-24T15:23:38.385Z,8.75
2023-02-24T15:27:58.697Z,8.15
2023-02-24T15:32:21.777Z,7.07
2023-02-24T15:36:36.321Z,7.25
2023-02-24T15:41:01.335Z,7.35
2023-02-24T15:45:30.806Z,8.15
2023-02-24T15:49:43.440Z,8.77
2023-02-24T15:53:56.992Z,8.63
2023-02-24T15:58:18.920Z,8.82
2023-02-24T16:02:31.303Z,10.27
2023-02-24T16:06:54.783Z,10.20
2023-02-24T16:11:07.148Z,10.10
2023-02-24T16:15:27.522Z,10.55
2023-02-24T16:19:40.744Z,10.52
2023-02-24T16:23:53.166Z,12.00
2023-02-24T16:28:05.713Z,11.55
2023-02-24T16:32:18.475Z,12.45
2023-02-24T16:36:31.616Z,13.27
2023-02-24T16:40:46.888Z,14.50
2023-02-24T16:44:59.213Z,14.93
2023-02-24T16:49:18.412Z,14.27
2023-02-24T16:53:31.255Z,15.18
2023-02-24T16:57:45.115Z,15.18
2023-02-24T17:01:58.169Z,17.10
2023-02-24T17:06:10.747Z,18.33
2023-02-24T17:10:24.429Z,18.00
2023-02-24T17:14:36.715Z,19.38
2023-02-24T17:18:49.109Z,19.25
2023-02-24T17:23:01.719Z,17.02
2023-02-24T17:27:14.561Z,15.20
2023-02-24T17:31:32.025Z,16.23
2023-02-24T17:35:47.333Z,16.30
2023-02-24T17:39:59.981Z,16.08
2023-02-24T17:44:12.427Z,14.18
2023-02-24T17:48:24.920Z,14.60
2023-02-24T17:52:37.535Z,16.50
2023-02-24T17:56:49.941Z,17.98
2023-02-24T18:01:03.717Z,21.02
2023-02-24T18:05:16.283Z,18.30
2023-02-24T18:09:29.416Z,16.15
2023-02-24T18:13:42.040Z,18.30
2023-02-24T18:17:54.551Z,15.57
2023-02-24T18:22:07.465Z,18.20
2023-02-24T18:26:21.901Z,19.73
2023-02-24T18:30:39.468Z,18.88
2023-02-24T18:34:51.833Z,20.50
2023-02-24T18:39:05.271Z,23.85
2023-02-24T18:43:17.663Z,20.80
2023-02-24T18:47:29.950Z,22.92
2023-02-24T18:51:42.508Z,21.10
2023-02-24T18:56:02.723Z,19.63
2023-02-24T19:00:15.798Z,21.05
2023-02-24T19:04:28.483Z,21.48
2023-02-24T19:08:42.694Z,22.20
2023-02-24T19:12:55.099Z,22.08
2023-02-24T19:17:07.499Z,22.55
2023-02-24T19:21:21.178Z,21.95
2023-02-24T19:25:34.569Z,22.38
2023-02-24T19:29:47.071Z,26.05
2023-02-24T19:34:02.118Z,26.17
2023-02-24T19:38:17.323Z,27.38
2023-02-24T19:42:30.820Z,27.95
2023-02-24T19:46:43.655Z,31.17
2023-02-24T19:50:56.260Z,32.88
2023-02-24T19:55:10.300Z,32.35
2023-02-24T19:59:23.130Z,32.42
2023-02-24T20:03:39.826Z,33.15
2023-02-24T20:07:52.239Z,32.65
2023-02-24T20:12:04.720Z,33.10
2023-02-24T20:16:19.434Z,29.98
2023-02-24T20:20:31.962Z,31.02
2023-02-24T20:24:47.735Z,33.78
2023-02-24T20:29:02.106Z,37.47
2023-02-24T20:33:15.327Z,37.25
2023-02-24T20:37:27.625Z,30.63
2023-02-24T20:41:40.799Z,30.80
2023-02-24T20:45:53.841Z,29.20
2023-02-24T20:50:06.888Z,29.73
2023-02-24T20:54:19.421Z,27.52
2023-02-24T20:58:32.139Z,28.20
2023-02-24T21:02:45.711Z,30.55
2023-02-24T21:06:58.147Z,27.17
2023-02-24T21:11:12.713Z,29.77
2023-02-24T21:15:25.105Z,30.30
2023-02-24T21:19:38.011Z,28.90
2023-02-24T21:23:51.545Z,30.85
2023-02-24T21:28:04.134Z,28.55
2023-02-24T21:32:16.710Z,26.70
2023-02-24T21:36:29.180Z,25.75
2023-02-24T21:40:41.606Z,26.90
2023-02-24T21:44:59.016Z,25.67
2023-02-24T21:49:15.101Z,25.13
2023-02-24T21:53:30.300Z,24.55
2023-02-24T21:57:45.040Z,23.08
2023-02-24T22:01:57.518Z,23.92
2023-02-24T22:06:11.736Z,23.40
2023-02-24T22:10:24.231Z,23.77
2023-02-24T22:14:36.730Z,24.52
2023-02-24T22:18:50.941Z,30.63
2023-02-24T22:23:03.665Z,23.80
2023-02-24T22:27:16.134Z,24.02
2023-02-24T22:31:32.561Z,22.15
2023-02-24T22:35:44.926Z,23.23
2023-02-24T22:39:58.571Z,24.40
2023-02-24T22:44:11.346Z,23.70
2023-02-24T22:48:27.019Z,22.15
2023-02-24T22:52:40.164Z,21.80
2023-02-24T22:56:56.621Z,21.70
2023-02-24T23:01:14.251Z,21.98
2023-02-24T23:05:26.725Z,20.33
2023-02-24T23:09:39.202Z,22.13
2023-02-24T23:13:52.277Z,20.42
2023-02-24T23:18:04.875Z,20.60
2023-02-24T23:22:19.288Z,20.17
2023-02-24T23:26:34.705Z,21.50
2023-02-24T23:30:48.028Z,21.33
2023-02-24T23:35:00.483Z,20.80
2023-02-24T23:39:15.189Z,21.55
2023-02-24T23:43:27.682Z,22.23
2023-02-24T23:47:40.056Z,21.73
2023-02-24T23:51:52.570Z,21.60
2023-02-24T23:56:18.285Z,21.60
